sensor_id;sensor_type;location;lat;lon;timestamp;pressure;altitude;pressure_sealevel;temperature;humidity
68366;BME280;55283;51.466;5.478;2023-04-08T00:00:05;102075.13;;;20.64;43.04
68366;BME280;55283;51.466;5.478;2023-04-08T00:02:32;102084.75;;;20.63;43.15
68366;BME280;55283;51.466;5.478;2023-04-08T00:04:58;102083.13;;;20.66;43.15
68366;BME280;55283;51.466;5.478;2023-04-08T00:07:23;102083.91;;;20.63;43.15
68366;BME280;55283;51.466;5.478;2023-04-08T00:09:48;102078.31;;;20.63;43.16
68366;BME280;55283;51.466;5.478;2023-04-08T00:12:14;102075.16;;;20.61;42.89
68366;BME280;55283;51.466;5.478;2023-04-08T00:14:40;102074.00;;;20.54;43.28
68366;BME280;55283;51.466;5.478;2023-04-08T00:17:06;102080.31;;;20.62;43.38
68366;BME280;55283;51.466;5.478;2023-04-08T00:19:31;102080.75;;;20.61;43.11
68366;BME280;55283;51.466;5.478;2023-04-08T00:21:57;102074.31;;;20.64;43.15
68366;BME280;55283;51.466;5.478;2023-04-08T00:24:23;102079.13;;;20.63;43.23
68366;BME280;55283;51.466;5.478;2023-04-08T00:26:49;102081.09;;;20.66;43.14
68366;BME280;55283;51.466;5.478;2023-04-08T00:29:14;102084.69;;;20.67;42.96
68366;BME280;55283;51.466;5.478;2023-04-08T00:31:40;102079.50;;;20.65;43.09
68366;BME280;55283;51.466;5.478;2023-04-08T00:34:06;102076.72;;;20.62;42.99
68366;BME280;55283;51.466;5.478;2023-04-08T00:36:31;102060.81;;;20.51;43.17
68366;BME280;55283;51.466;5.478;2023-04-08T00:38:57;102077.56;;;20.58;43.13
68366;BME280;55283;51.466;5.478;2023-04-08T00:41:23;102080.75;;;20.61;43.03
68366;BME280;55283;51.466;5.478;2023-04-08T00:43:49;102079.13;;;20.60;43.30
68366;BME280;55283;51.466;5.478;2023-04-08T00:46:14;102086.72;;;20.63;42.92
68366;BME280;55283;51.466;5.478;2023-04-08T00:48:40;102098.75;;;20.63;43.21
68366;BME280;55283;51.466;5.478;2023-04-08T00:51:06;102094.75;;;20.61;43.03
68366;BME280;55283;51.466;5.478;2023-04-08T00:53:32;102090.38;;;20.56;43.22
68366;BME280;55283;51.466;5.478;2023-04-08T00:55:57;102085.56;;;20.60;43.22
68366;BME280;55283;51.466;5.478;2023-04-08T00:58:25;102078.00;;;20.53;43.16
68366;BME280;55283;51.466;5.478;2023-04-08T01:00:59;102085.56;;;20.60;43.20
68366;BME280;55283;51.466;5.478;2023-04-08T01:03:35;102087.19;;;20.57;43.15
68366;BME280;55283;51.466;5.478;2023-04-08T01:09:26;102089.56;;;20.59;43.16
68366;BME280;55283;51.466;5.478;2023-04-08T01:11:52;102076.81;;;20.51;43.18
68366;BME280;55283;51.466;5.478;2023-04-08T01:14:25;102085.56;;;20.56;43.41
68366;BME280;55283;51.466;5.478;2023-04-08T01:16:54;102089.19;;;20.57;43.31
68366;BME280;55283;51.466;5.478;2023-04-08T01:19:27;102084.03;;;20.52;43.10
68366;BME280;55283;51.466;5.478;2023-04-08T01:22:01;102100.38;;;20.61;43.17
68366;BME280;55283;51.466;5.478;2023-04-08T01:24:30;102096.78;;;20.60;43.11
68366;BME280;55283;51.466;5.478;2023-04-08T01:26:58;102097.56;;;20.61;43.10
68366;BME280;55283;51.466;5.478;2023-04-08T01:29:27;102096.78;;;20.56;43.16
68366;BME280;55283;51.466;5.478;2023-04-08T01:31:53;102094.75;;;20.61;43.09
68366;BME280;55283;51.466;5.478;2023-04-08T01:34:21;102099.56;;;20.60;43.06
68366;BME280;55283;51.466;5.478;2023-04-08T01:36:47;102103.97;;;20.61;43.06
68366;BME280;55283;51.466;5.478;2023-04-08T01:39:14;102108.81;;;20.57;43.15
68366;BME280;55283;51.466;5.478;2023-04-08T01:41:41;102095.94;;;20.60;43.20
68366;BME280;55283;51.466;5.478;2023-04-08T01:44:09;102097.16;;;20.58;43.20
68366;BME280;55283;51.466;5.478;2023-04-08T01:46:35;102102.78;;;20.58;43.26
68366;BME280;55283;51.466;5.478;2023-04-08T01:49:01;102102.81;;;20.55;43.17
68366;BME280;55283;51.466;5.478;2023-04-08T01:51:29;102091.63;;;20.48;43.24
68366;BME280;55283;51.466;5.478;2023-04-08T01:53:56;102105.19;;;20.56;43.14
68366;BME280;55283;51.466;5.478;2023-04-08T01:56:21;102091.25;;;20.49;43.22
68366;BME280;55283;51.466;5.478;2023-04-08T01:58:51;102099.22;;;20.54;43.15
68366;BME280;55283;51.466;5.478;2023-04-08T02:01:20;102099.22;;;20.54;43.16
68366;BME280;55283;51.466;5.478;2023-04-08T02:03:47;102100.88;;;20.48;43.24
68366;BME280;55283;51.466;5.478;2023-04-08T02:06:16;102099.59;;;20.53;43.10
68366;BME280;55283;51.466;5.478;2023-04-08T02:08:42;102095.66;;;20.47;43.18
68366;BME280;55283;51.466;5.478;2023-04-08T02:11:07;102106.44;;;20.52;43.22
68366;BME280;55283;51.466;5.478;2023-04-08T02:13:33;102097.59;;;20.53;43.28
68366;BME280;55283;51.466;5.478;2023-04-08T02:18:57;102102.84;;;20.51;43.24
68366;BME280;55283;51.466;5.478;2023-04-08T02:21:35;102104.84;;;20.47;43.27
68366;BME280;55283;51.466;5.478;2023-04-08T02:24:04;102104.41;;;20.52;43.38
68366;BME280;55283;51.466;5.478;2023-04-08T02:26:36;102098.50;;;20.43;43.17
68366;BME280;55283;51.466;5.478;2023-04-08T02:29:04;102110.03;;;20.52;43.36
68366;BME280;55283;51.466;5.478;2023-04-08T02:31:31;102106.09;;;20.43;43.41
68366;BME280;55283;51.466;5.478;2023-04-08T02:33:58;102105.25;;;20.49;43.32
68366;BME280;55283;51.466;5.478;2023-04-08T02:36:24;102106.03;;;20.50;43.28
68366;BME280;55283;51.466;5.478;2023-04-08T02:38:50;102109.63;;;20.50;43.22
68366;BME280;55283;51.466;5.478;2023-04-08T02:41:16;102121.22;;;20.52;43.16
68366;BME280;55283;51.466;5.478;2023-04-08T02:43:42;102111.25;;;20.51;43.24
68366;BME280;55283;51.466;5.478;2023-04-08T02:46:08;102124.03;;;20.52;43.14
68366;BME280;55283;51.466;5.478;2023-04-08T02:48:35;102111.28;;;20.44;43.19
68366;BME280;55283;51.466;5.478;2023-04-08T02:51:00;102116.06;;;20.47;43.18
68366;BME280;55283;51.466;5.478;2023-04-08T02:53:26;102114.41;;;20.53;43.07
68366;BME280;55283;51.466;5.478;2023-04-08T02:55:51;102119.28;;;20.46;43.27
68366;BME280;55283;51.466;5.478;2023-04-08T02:58:17;102114.06;;;20.44;43.09
68366;BME280;55283;51.466;5.478;2023-04-08T03:00:42;102110.88;;;20.46;43.24
68366;BME280;55283;51.466;5.478;2023-04-08T03:03:08;102127.66;;;20.49;43.23
68366;BME280;55283;51.466;5.478;2023-04-08T03:05:33;102105.28;;;20.42;43.27
68366;BME280;55283;51.466;5.478;2023-04-08T03:07:59;102128.44;;;20.50;43.21
68366;BME280;55283;51.466;5.478;2023-04-08T03:10:25;102127.69;;;20.46;43.32
68366;BME280;55283;51.466;5.478;2023-04-08T03:12:50;102120.88;;;20.47;43.25
68366;BME280;55283;51.466;5.478;2023-04-08T03:15:16;102130.03;;;20.51;43.28
68366;BME280;55283;51.466;5.478;2023-04-08T03:17:41;102127.22;;;20.51;43.22
68366;BME280;55283;51.466;5.478;2023-04-08T03:20:07;102133.25;;;20.49;43.33
68366;BME280;55283;51.466;5.478;2023-04-08T03:22:33;102130.06;;;20.47;43.20
68366;BME280;55283;51.466;5.478;2023-04-08T03:24:59;102130.06;;;20.47;43.37
68366;BME280;55283;51.466;5.478;2023-04-08T03:27:24;102120.84;;;20.50;43.39
68366;BME280;55283;51.466;5.478;2023-04-08T03:29:50;102124.84;;;20.49;43.04
68366;BME280;55283;51.466;5.478;2023-04-08T03:32:17;102124.03;;;20.52;43.29
68366;BME280;55283;51.466;5.478;2023-04-08T03:34:43;102125.66;;;20.50;43.38
68366;BME280;55283;51.466;5.478;2023-04-08T03:37:08;102124.84;;;20.49;43.40
68366;BME280;55283;51.466;5.478;2023-04-08T03:39:34;102130.47;;;20.49;43.24
68366;BME280;55283;51.466;5.478;2023-04-08T03:41:59;102130.84;;;20.48;43.34
68366;BME280;55283;51.466;5.478;2023-04-08T03:44:25;102134.47;;;20.48;43.24
68366;BME280;55283;51.466;5.478;2023-04-08T03:46:51;102133.25;;;20.49;43.19
68366;BME280;55283;51.466;5.478;2023-04-08T03:49:17;102118.91;;;20.40;43.18
68366;BME280;55283;51.466;5.478;2023-04-08T03:51:42;102138.09;;;20.45;43.27
68366;BME280;55283;51.466;5.478;2023-04-08T03:54:08;102128.09;;;20.44;43.32
68366;BME280;55283;51.466;5.478;2023-04-08T03:56:33;102132.50;;;20.45;43.46
68366;BME280;55283;51.466;5.478;2023-04-08T03:58:58;102139.72;;;20.39;43.43
68366;BME280;55283;51.466;5.478;2023-04-08T04:01:24;102133.25;;;20.49;43.43
68366;BME280;55283;51.466;5.478;2023-04-08T04:03:50;102136.84;;;20.50;43.48
68366;BME280;55283;51.466;5.478;2023-04-08T04:06:15;102128.06;;;20.48;43.43
68366;BME280;55283;51.466;5.478;2023-04-08T04:08:41;102112.09;;;20.41;43.16
68366;BME280;55283;51.466;5.478;2023-04-08T04:11:06;102131.25;;;20.50;43.33
68366;BME280;55283;51.466;5.478;2023-04-08T04:13:31;102119.28;;;20.42;43.39
68366;BME280;55283;51.466;5.478;2023-04-08T04:15:57;102128.91;;;20.41;43.21
68366;BME280;55283;51.466;5.478;2023-04-08T04:18:22;102141.25;;;20.47;43.43
68366;BME280;55283;51.466;5.478;2023-04-08T04:20:48;102141.66;;;20.49;43.28
68366;BME280;55283;51.466;5.478;2023-04-08T04:23:13;102141.66;;;20.49;43.22
68366;BME280;55283;51.466;5.478;2023-04-08T04:25:42;102140.50;;;20.43;43.34
68366;BME280;55283;51.466;5.478;2023-04-08T04:28:07;102152.09;;;20.45;43.45
68366;BME280;55283;51.466;5.478;2023-04-08T04:30:38;102155.28;;;20.47;43.43
68366;BME280;55283;51.466;5.478;2023-04-08T04:33:04;102155.28;;;20.47;43.38
68366;BME280;55283;51.466;5.478;2023-04-08T04:35:30;102157.28;;;20.47;43.33
68366;BME280;55283;51.466;5.478;2023-04-08T04:37:55;102160.88;;;20.47;43.33
68366;BME280;55283;51.466;5.478;2023-04-08T04:40:21;102165.69;;;20.47;43.47
68366;BME280;55283;51.466;5.478;2023-04-08T04:42:46;102154.09;;;20.45;43.07
68366;BME280;55283;51.466;5.478;2023-04-08T04:45:11;102153.69;;;20.46;43.31
68366;BME280;55283;51.466;5.478;2023-04-08T04:47:37;102161.31;;;20.46;43.40
68366;BME280;55283;51.466;5.478;2023-04-08T04:50:03;102169.28;;;20.47;43.40
68366;BME280;55283;51.466;5.478;2023-04-08T04:52:28;102168.91;;;20.45;43.46
68366;BME280;55283;51.466;5.478;2023-04-08T04:54:55;102162.13;;;20.39;43.24
68366;BME280;55283;51.466;5.478;2023-04-08T04:57:21;102155.31;;;20.37;43.36
68366;BME280;55283;51.466;5.478;2023-04-08T04:59:46;102176.09;;;20.46;43.47
68366;BME280;55283;51.466;5.478;2023-04-08T05:02:12;102174.91;;;20.44;43.34
68366;BME280;55283;51.466;5.478;2023-04-08T05:04:37;102175.69;;;20.44;43.47
68366;BME280;55283;51.466;5.478;2023-04-08T05:07:02;102187.31;;;20.46;43.21
68366;BME280;55283;51.466;5.478;2023-04-08T05:09:28;102169.72;;;20.35;43.34
68366;BME280;55283;51.466;5.478;2023-04-08T05:11:55;102187.31;;;20.46;43.34
68366;BME280;55283;51.466;5.478;2023-04-08T05:14:20;102174.94;;;20.40;43.31
68366;BME280;55283;51.466;5.478;2023-04-08T05:16:45;102190.09;;;20.46;43.23
68366;BME280;55283;51.466;5.478;2023-04-08T05:19:11;102186.09;;;20.44;43.28
68366;BME280;55283;51.466;5.478;2023-04-08T05:21:36;102186.50;;;20.42;43.40
68366;BME280;55283;51.466;5.478;2023-04-08T05:24:01;102193.28;;;20.45;43.21
68366;BME280;55283;51.466;5.478;2023-04-08T05:26:27;102192.94;;;20.43;43.30
68366;BME280;55283;51.466;5.478;2023-04-08T05:28:52;102194.94;;;20.39;43.44
68366;BME280;55283;51.466;5.478;2023-04-08T05:31:19;102198.53;;;20.39;43.79
68366;BME280;55283;51.466;5.478;2023-04-08T05:33:45;102198.53;;;20.43;43.40
68366;BME280;55283;51.466;5.478;2023-04-08T05:36:11;102190.53;;;20.41;43.55
68366;BME280;55283;51.466;5.478;2023-04-08T05:38:37;102200.91;;;20.44;43.75
68366;BME280;55283;51.466;5.478;2023-04-08T05:41:03;102200.13;;;20.40;44.07
68366;BME280;55283;51.466;5.478;2023-04-08T05:43:28;102206.56;;;20.37;44.20
68366;BME280;55283;51.466;5.478;2023-04-08T05:45:54;102205.34;;;20.38;44.45
68366;BME280;55283;51.466;5.478;2023-04-08T05:48:20;102200.53;;;20.39;44.49
68366;BME280;55283;51.466;5.478;2023-04-08T05:50:45;102206.13;;;20.39;44.36
68366;BME280;55283;51.466;5.478;2023-04-08T05:53:13;102194.91;;;20.42;44.08
68366;BME280;55283;51.466;5.478;2023-04-08T05:55:39;102217.63;;;20.58;44.34
68366;BME280;55283;51.466;5.478;2023-04-08T05:58:05;102210.44;;;20.57;44.28
68366;BME280;55283;51.466;5.478;2023-04-08T06:00:30;102208.50;;;20.44;44.61
68366;BME280;55283;51.466;5.478;2023-04-08T06:02:56;102222.50;;;20.47;44.29
68366;BME280;55283;51.466;5.478;2023-04-08T06:05:21;102214.09;;;20.47;44.64
68366;BME280;55283;51.466;5.478;2023-04-08T06:07:46;102222.81;;;20.64;45.02
68366;BME280;55283;51.466;5.478;2023-04-08T06:10:12;102222.41;;;20.62;45.31
68366;BME280;55283;51.466;5.478;2023-04-08T06:12:37;102231.16;;;20.71;45.39
68366;BME280;55283;51.466;5.478;2023-04-08T06:15:05;102235.19;;;20.70;45.41
68366;BME280;55283;51.466;5.478;2023-04-08T06:17:31;102230.06;;;20.57;44.46
68366;BME280;55283;51.466;5.478;2023-04-08T06:19:56;102240.44;;;20.61;44.72
68366;BME280;55283;51.466;5.478;2023-04-08T06:22:21;102237.66;;;20.57;44.94
68366;BME280;55283;51.466;5.478;2023-04-08T06:24:47;102239.75;;;20.39;42.95
68366;BME280;55283;51.466;5.478;2023-04-08T06:27:13;102246.16;;;20.25;40.90
68366;BME280;55283;51.466;5.478;2023-04-08T06:29:38;102237.84;;;20.10;40.47
68366;BME280;55283;51.466;5.478;2023-04-08T06:32:04;102253.09;;;19.92;40.53
68366;BME280;55283;51.466;5.478;2023-04-08T06:34:30;102257.09;;;19.90;40.41
68366;BME280;55283;51.466;5.478;2023-04-08T06:36:55;102271.09;;;19.90;40.23
68366;BME280;55283;51.466;5.478;2023-04-08T06:39:21;102261.94;;;19.76;39.38
68366;BME280;55283;51.466;5.478;2023-04-08T06:41:47;102262.31;;;19.63;39.44
68366;BME280;55283;51.466;5.478;2023-04-08T06:44:12;102273.50;;;19.78;39.59
68366;BME280;55283;51.466;5.478;2023-04-08T06:46:38;102275.91;;;19.83;40.26
68366;BME280;55283;51.466;5.478;2023-04-08T06:49:03;102269.09;;;19.84;40.51
68366;BME280;55283;51.466;5.478;2023-04-08T06:51:31;102279.09;;;19.88;41.22
68366;BME280;55283;51.466;5.478;2023-04-08T06:53:56;102272.66;;;19.95;41.48
68366;BME280;55283;51.466;5.478;2023-04-08T06:56:22;102273.47;;;19.96;41.35
68366;BME280;55283;51.466;5.478;2023-04-08T06:58:47;102283.84;;;20.02;41.45
68366;BME280;55283;51.466;5.478;2023-04-08T07:01:13;102279.84;;;20.07;41.35
68366;BME280;55283;51.466;5.478;2023-04-08T07:03:40;102284.25;;;20.08;41.48
68366;BME280;55283;51.466;5.478;2023-04-08T07:06:05;102287.03;;;20.11;41.37
68366;BME280;55283;51.466;5.478;2023-04-08T07:08:31;102279.47;;;20.05;41.55
68366;BME280;55283;51.466;5.478;2023-04-08T07:10:56;102278.63;;;20.11;41.70
68366;BME280;55283;51.466;5.478;2023-04-08T07:13:22;102295.81;;;20.17;41.67
68366;BME280;55283;51.466;5.478;2023-04-08T07:15:47;102295.03;;;20.17;41.70
68366;BME280;55283;51.466;5.478;2023-04-08T07:18:14;102298.19;;;20.19;41.70
68366;BME280;55283;51.466;5.478;2023-04-08T07:20:39;102290.63;;;20.08;41.93
68366;BME280;55283;51.466;5.478;2023-04-08T07:23:06;102301.84;;;20.05;41.90
68366;BME280;55283;51.466;5.478;2023-04-08T07:25:32;102316.25;;;20.10;42.19
68366;BME280;55283;51.466;5.478;2023-04-08T07:27:59;102312.22;;;20.11;42.44
68366;BME280;55283;51.466;5.478;2023-04-08T07:30:25;102313.78;;;20.16;42.46
68366;BME280;55283;51.466;5.478;2023-04-08T07:32:50;102328.22;;;20.15;42.44
68366;BME280;55283;51.466;5.478;2023-04-08T07:35:16;102315.00;;;20.19;42.49
68366;BME280;55283;51.466;5.478;2023-04-08T07:37:49;102324.63;;;20.10;42.71
68366;BME280;55283;51.466;5.478;2023-04-08T07:40:17;102325.81;;;20.09;42.83
68366;BME280;55283;51.466;5.478;2023-04-08T07:42:43;102313.00;;;20.12;43.09
68366;BME280;55283;51.466;5.478;2023-04-08T07:45:09;102324.59;;;20.18;42.77
68366;BME280;55283;51.466;5.478;2023-04-08T07:47:34;102311.81;;;20.09;42.83
68366;BME280;55283;51.466;5.478;2023-04-08T07:50:01;102323.38;;;20.19;42.94
68366;BME280;55283;51.466;5.478;2023-04-08T07:52:26;102313.03;;;20.08;42.75
68366;BME280;55283;51.466;5.478;2023-04-08T07:54:54;102338.63;;;20.14;42.88
68366;BME280;55283;51.466;5.478;2023-04-08T07:57:19;102338.19;;;20.16;43.17
68366;BME280;55283;51.466;5.478;2023-04-08T07:59:45;102337.00;;;20.17;43.07
68366;BME280;55283;51.466;5.478;2023-04-08T08:02:10;102337.00;;;20.17;43.18
68366;BME280;55283;51.466;5.478;2023-04-08T08:04:36;102334.19;;;20.24;43.11
68366;BME280;55283;51.466;5.478;2023-04-08T08:07:01;102347.78;;;20.29;42.82
68366;BME280;55283;51.466;5.478;2023-04-08T08:09:27;102345.38;;;20.31;42.98
68366;BME280;55283;51.466;5.478;2023-04-08T08:11:52;102350.16;;;20.30;42.95
68366;BME280;55283;51.466;5.478;2023-04-08T08:14:18;102345.78;;;20.26;43.17
68366;BME280;55283;51.466;5.478;2023-04-08T08:16:43;102354.19;;;20.26;43.21
68366;BME280;55283;51.466;5.478;2023-04-08T08:19:08;102352.56;;;20.32;43.09
68366;BME280;55283;51.466;5.478;2023-04-08T08:21:37;102351.38;;;20.29;43.17
68366;BME280;55283;51.466;5.478;2023-04-08T08:24:03;102360.97;;;20.32;43.08
68366;BME280;55283;51.466;5.478;2023-04-08T08:26:29;102354.97;;;20.26;43.11
68366;BME280;55283;51.466;5.478;2023-04-08T08:28:54;102362.97;;;20.31;43.20
68366;BME280;55283;51.466;5.478;2023-04-08T08:31:20;102358.97;;;20.32;43.11
68366;BME280;55283;51.466;5.478;2023-04-08T08:33:45;102370.59;;;20.31;42.98
68366;BME280;55283;51.466;5.478;2023-04-08T08:36:11;102371.38;;;20.31;43.14
68366;BME280;55283;51.466;5.478;2023-04-08T08:38:37;102352.19;;;20.16;43.15
68366;BME280;55283;51.466;5.478;2023-04-08T08:41:03;102375.38;;;20.34;43.32
68366;BME280;55283;51.466;5.478;2023-04-08T08:43:29;102371.38;;;20.35;43.55
68366;BME280;55283;51.466;5.478;2023-04-08T08:45:58;102371.78;;;20.41;43.42
68366;BME280;55283;51.466;5.478;2023-04-08T08:48:23;102382.59;;;20.46;43.21
68366;BME280;55283;51.466;5.478;2023-04-08T08:50:50;102378.19;;;20.41;43.28
68366;BME280;55283;51.466;5.478;2023-04-08T08:53:15;102386.59;;;20.38;43.38
68366;BME280;55283;51.466;5.478;2023-04-08T08:55:41;102380.56;;;20.39;43.36
68366;BME280;55283;51.466;5.478;2023-04-08T08:58:06;102373.75;;;20.33;43.41
68366;BME280;55283;51.466;5.478;2023-04-08T09:00:36;102385.38;;;20.31;43.38
68366;BME280;55283;51.466;5.478;2023-04-08T09:03:18;102382.59;;;20.21;43.48
68366;BME280;55283;51.466;5.478;2023-04-08T09:05:52;102389.41;;;20.23;43.64
68366;BME280;55283;51.466;5.478;2023-04-08T09:08:34;102394.16;;;20.33;43.51
68366;BME280;55283;51.466;5.478;2023-04-08T09:11:17;102398.19;;;20.29;42.41
68366;BME280;55283;51.466;5.478;2023-04-08T09:13:44;102393.41;;;20.26;42.49
68366;BME280;55283;51.466;5.478;2023-04-08T09:16:12;102393.81;;;20.28;42.92
68366;BME280;55283;51.466;5.478;2023-04-08T09:18:39;102400.19;;;20.28;42.91
68366;BME280;55283;51.466;5.478;2023-04-08T09:21:07;102395.78;;;20.24;43.43
68366;BME280;55283;51.466;5.478;2023-04-08T09:23:46;102407.81;;;20.28;43.22
68366;BME280;55283;51.466;5.478;2023-04-08T09:29:05;102412.97;;;20.37;43.16
68366;BME280;55283;51.466;5.478;2023-04-08T09:31:36;102405.78;;;20.39;43.03
68366;BME280;55283;51.466;5.478;2023-04-08T09:34:15;102398.56;;;20.34;43.18
68366;BME280;55283;51.466;5.478;2023-04-08T09:36:42;102403.38;;;20.41;43.04
68366;BME280;55283;51.466;5.478;2023-04-08T09:39:13;102407.00;;;20.45;42.94
68366;BME280;55283;51.466;5.478;2023-04-08T09:41:41;102405.38;;;20.44;42.98
68366;BME280;55283;51.466;5.478;2023-04-08T09:44:10;102412.97;;;20.44;43.09
68366;BME280;55283;51.466;5.478;2023-04-08T09:49:28;102411.78;;;20.48;42.90
68366;BME280;55283;51.466;5.478;2023-04-08T09:52:23;102416.56;;;20.48;42.83
68366;BME280;55283;51.466;5.478;2023-04-08T09:55:04;102416.97;;;20.46;43.04
68366;BME280;55283;51.466;5.478;2023-04-08T09:57:40;102420.97;;;20.52;42.94
68366;BME280;55283;51.466;5.478;2023-04-08T10:00:16;102414.59;;;20.48;43.16
68366;BME280;55283;51.466;5.478;2023-04-08T10:05:20;102421.34;;;20.51;42.89
68366;BME280;55283;51.466;5.478;2023-04-08T10:07:47;102416.97;;;20.46;43.20
68366;BME280;55283;51.466;5.478;2023-04-08T10:10:14;102413.38;;;20.42;43.35
68366;BME280;55283;51.466;5.478;2023-04-08T10:12:40;102426.16;;;20.54;43.36
68366;BME280;55283;51.466;5.478;2023-04-08T10:15:25;102392.19;;;20.34;43.08
68366;BME280;55283;51.466;5.478;2023-04-08T10:20:46;102423.38;;;20.50;43.19
68366;BME280;55283;51.466;5.478;2023-04-08T10:23:15;102423.38;;;20.47;43.40
68366;BME280;55283;51.466;5.478;2023-04-08T10:25:45;102423.81;;;20.45;43.47
68366;BME280;55283;51.466;5.478;2023-04-08T10:33:09;102411.78;;;20.48;43.71
68366;BME280;55283;51.466;5.478;2023-04-08T10:35:36;102416.97;;;20.57;44.18
68366;BME280;55283;51.466;5.478;2023-04-08T10:38:02;102419.34;;;20.66;44.34
68366;BME280;55283;51.466;5.478;2023-04-08T10:40:28;102417.34;;;20.66;44.39
68366;BME280;55283;51.466;5.478;2023-04-08T10:42:57;102410.13;;;20.65;43.94
68366;BME280;55283;51.466;5.478;2023-04-08T10:45:23;102410.13;;;20.65;44.02
68366;BME280;55283;51.466;5.478;2023-04-08T10:47:49;102413.72;;;20.69;43.98
68366;BME280;55283;51.466;5.478;2023-04-08T10:50:16;102405.31;;;20.69;44.24
68366;BME280;55283;51.466;5.478;2023-04-08T10:53:00;102400.09;;;20.75;44.12
68366;BME280;55283;51.466;5.478;2023-04-08T10:55:27;102392.88;;;20.74;43.98
68366;BME280;55283;51.466;5.478;2023-04-08T10:57:53;102400.09;;;20.75;44.18
68366;BME280;55283;51.466;5.478;2023-04-08T11:00:31;102401.69;;;20.76;44.17
68366;BME280;55283;51.466;5.478;2023-04-08T11:03:02;102390.47;;;20.76;44.24
68366;BME280;55283;51.466;5.478;2023-04-08T11:05:28;102393.69;;;20.78;44.21
68366;BME280;55283;51.466;5.478;2023-04-08T11:07:53;102396.06;;;20.83;44.23
68366;BME280;55283;51.466;5.478;2023-04-08T11:10:20;102393.63;;;20.85;44.47
68366;BME280;55283;51.466;5.478;2023-04-08T11:12:45;102380.41;;;20.86;44.16
68366;BME280;55283;51.466;5.478;2023-04-08T11:15:12;102384.84;;;20.83;44.06
68366;BME280;55283;51.466;5.478;2023-04-08T11:17:37;102387.59;;;20.90;44.02
68366;BME280;55283;51.466;5.478;2023-04-08T11:20:03;102389.19;;;20.91;44.12
68366;BME280;55283;51.466;5.478;2023-04-08T11:22:31;102395.19;;;20.97;43.90
68366;BME280;55283;51.466;5.478;2023-04-08T11:24:58;102386.41;;;20.95;43.71
68366;BME280;55283;51.466;5.478;2023-04-08T11:27:25;102382.41;;;20.89;43.70
68366;BME280;55283;51.466;5.478;2023-04-08T11:29:54;102377.63;;;20.89;44.07
68366;BME280;55283;51.466;5.478;2023-04-08T11:32:22;102384.75;;;21.01;44.36
68366;BME280;55283;51.466;5.478;2023-04-08T11:34:48;102384.34;;;21.02;44.58
68366;BME280;55283;51.466;5.478;2023-04-08T11:37:14;102387.94;;;21.07;44.26
68366;BME280;55283;51.466;5.478;2023-04-08T11:39:43;102383.91;;;21.08;43.70
68366;BME280;55283;51.466;5.478;2023-04-08T11:42:28;102389.09;;;21.13;42.98
68366;BME280;55283;51.466;5.478;2023-04-08T11:44:54;102394.31;;;21.11;42.63
68366;BME280;55283;51.466;5.478;2023-04-08T11:47:19;102386.28;;;21.09;42.07
68366;BME280;55283;51.466;5.478;2023-04-08T11:49:45;102391.09;;;21.09;40.89
68366;BME280;55283;51.466;5.478;2023-04-08T11:52:11;102387.94;;;21.07;41.35
68366;BME280;55283;51.466;5.478;2023-04-08T11:54:40;102386.31;;;21.06;40.62
68366;BME280;55283;51.466;5.478;2023-04-08T11:57:06;102388.34;;;21.05;40.11
68366;BME280;55283;51.466;5.478;2023-04-08T11:59:34;102384.72;;;21.08;39.44
68366;BME280;55283;51.466;5.478;2023-04-08T12:02:01;102381.13;;;21.00;39.57
68366;BME280;55283;51.466;5.478;2023-04-08T12:04:27;102368.75;;;20.94;38.72
68366;BME280;55283;51.466;5.478;2023-04-08T12:06:52;102379.91;;;21.05;39.01
68366;BME280;55283;51.466;5.478;2023-04-08T12:09:18;102394.38;;;21.03;39.56
68366;BME280;55283;51.466;5.478;2023-04-08T12:11:43;102388.75;;;21.03;39.58
68366;BME280;55283;51.466;5.478;2023-04-08T12:14:09;102379.53;;;21.07;39.78
68366;BME280;55283;51.466;5.478;2023-04-08T12:16:34;102367.50;;;21.06;39.89
68366;BME280;55283;51.466;5.478;2023-04-08T12:19:00;102379.91;;;21.12;40.05
68366;BME280;55283;51.466;5.478;2023-04-08T12:21:25;102379.06;;;21.12;39.98
68366;BME280;55283;51.466;5.478;2023-04-08T12:23:52;102377.88;;;21.13;40.34
68366;BME280;55283;51.466;5.478;2023-04-08T12:26:17;102373.88;;;21.14;40.20
68366;BME280;55283;51.466;5.478;2023-04-08T12:28:44;102374.66;;;21.14;40.24
68366;BME280;55283;51.466;5.478;2023-04-08T12:31:10;102375.88;;;21.17;40.31
68366;BME280;55283;51.466;5.478;2023-04-08T12:33:36;102366.69;;;21.16;40.59
68366;BME280;55283;51.466;5.478;2023-04-08T12:36:01;102368.66;;;21.19;40.48
68366;BME280;55283;51.466;5.478;2023-04-08T12:38:27;102369.06;;;21.14;40.59
68366;BME280;55283;51.466;5.478;2023-04-08T12:40:53;102375.03;;;21.23;40.42
68366;BME280;55283;51.466;5.478;2023-04-08T12:43:20;102356.25;;;21.13;40.58
68366;BME280;55283;51.466;5.478;2023-04-08T12:45:46;102370.63;;;21.22;40.71
68366;BME280;55283;51.466;5.478;2023-04-08T12:48:13;102369.41;;;21.23;40.67
68366;BME280;55283;51.466;5.478;2023-04-08T12:50:38;102364.63;;;21.24;40.82
68366;BME280;55283;51.466;5.478;2023-04-08T12:53:04;102363.81;;;21.27;40.75
68366;BME280;55283;51.466;5.478;2023-04-08T12:55:29;102373.03;;;21.28;40.69
68366;BME280;55283;51.466;5.478;2023-04-08T12:57:55;102359.03;;;21.24;41.06
68366;BME280;55283;51.466;5.478;2023-04-08T13:00:21;102359.78;;;21.28;40.92
68366;BME280;55283;51.466;5.478;2023-04-08T13:02:46;102351.38;;;21.28;40.99
68366;BME280;55283;51.466;5.478;2023-04-08T13:05:11;102352.97;;;21.29;40.99
68366;BME280;55283;51.466;5.478;2023-04-08T13:07:37;102349.34;;;21.29;41.05
68366;BME280;55283;51.466;5.478;2023-04-08T13:10:03;102348.56;;;21.28;41.06